createdAt,value
2022-08-16T00:00:03.531Z,19.54
2022-08-16T00:00:55.429Z,19.55
2022-08-16T00:01:54.454Z,19.55
2022-08-16T00:02:54.417Z,19.55
2022-08-16T00:03:54.400Z,19.56
2022-08-16T00:04:54.385Z,19.56
2022-08-16T00:05:57.459Z,19.56
2022-08-16T00:06:54.337Z,19.58
2022-08-16T00:07:56.283Z,19.58
2022-08-16T00:08:54.337Z,19.59
2022-08-16T00:09:54.316Z,19.59
2022-08-16T00:10:54.314Z,19.59
2022-08-16T00:11:55.412Z,19.59
2022-08-16T00:12:54.705Z,19.58
2022-08-16T00:13:55.610Z,19.58
2022-08-16T00:14:56.773Z,19.58
2022-08-16T00:15:54.417Z,19.62
2022-08-16T00:17:01.177Z,19.62
2022-08-16T00:17:56.774Z,19.62
2022-08-16T00:18:54.223Z,19.59
2022-08-16T00:19:55.213Z,19.59
2022-08-16T00:20:54.197Z,19.58
2022-08-16T00:21:56.158Z,19.59
2022-08-16T00:22:55.181Z,19.59
2022-08-16T00:23:54.180Z,19.59
2022-08-16T00:24:54.278Z,19.59
2022-08-16T00:26:36.291Z,19.59
2022-08-16T00:26:55.121Z,19.59
2022-08-16T00:27:54.120Z,19.62
2022-08-16T00:28:54.781Z,19.63
2022-08-16T00:30:08.863Z,19.62
2022-08-16T00:30:55.060Z,19.64
2022-08-16T00:32:00.943Z,19.66
2022-08-16T00:32:57.197Z,19.66
2022-08-16T00:33:54.061Z,19.66
2022-08-16T00:34:54.428Z,19.67
2022-08-16T00:35:54.026Z,19.69
2022-08-16T00:36:55.931Z,19.69
2022-08-16T00:37:57.983Z,19.70
2022-08-16T00:38:56.320Z,19.70
2022-08-16T00:39:57.524Z,19.70
2022-08-16T00:40:54.128Z,19.73
2022-08-16T00:41:53.966Z,19.76
2022-08-16T00:42:54.828Z,19.77
2022-08-16T00:43:53.953Z,19.79
2022-08-16T00:44:53.925Z,19.81
2022-08-16T00:46:00.202Z,19.82
2022-08-16T00:47:06.266Z,19.82
2022-08-16T00:47:54.885Z,19.84
2022-08-16T00:48:53.898Z,19.85
2022-08-16T00:49:56.672Z,19.86
2022-08-16T00:50:55.280Z,19.86
2022-08-16T00:51:55.581Z,19.88
2022-08-16T00:52:54.678Z,19.88
2022-08-16T00:53:53.845Z,19.88
2022-08-16T00:54:53.810Z,19.89
2022-08-16T00:55:53.809Z,19.91
2022-08-16T00:56:58.207Z,19.95
2022-08-16T00:57:58.953Z,19.96
2022-08-16T00:58:54.785Z,19.99
2022-08-16T00:59:58.675Z,20.00
2022-08-16T01:00:54.825Z,20.00
2022-08-16T01:01:53.731Z,20.02
2022-08-16T01:02:53.725Z,20.00
2022-08-16T01:03:53.757Z,20.02
2022-08-16T01:05:10.855Z,20.04
2022-08-16T01:05:54.704Z,20.02
2022-08-16T01:07:02.279Z,20.02
2022-08-16T01:07:54.669Z,20.00
2022-08-16T01:08:53.663Z,19.96
2022-08-16T01:09:53.669Z,19.95
2022-08-16T01:10:53.629Z,19.91
2022-08-16T01:11:55.236Z,19.89
2022-08-16T01:12:53.609Z,19.85
2022-08-16T01:13:53.601Z,19.82
2022-08-16T01:14:53.621Z,19.81
2022-08-16T01:15:53.762Z,19.76
2022-08-16T01:16:53.574Z,19.73
2022-08-16T01:17:56.033Z,19.70
2022-08-16T01:18:53.541Z,19.69
2022-08-16T01:19:53.541Z,19.69
2022-08-16T01:20:53.537Z,19.66
2022-08-16T01:21:53.513Z,19.66
2022-08-16T01:22:53.551Z,19.66
2022-08-16T01:24:00.880Z,19.63
2022-08-16T01:24:55.472Z,19.63
2022-08-16T01:26:00.312Z,19.62
2022-08-16T01:26:54.489Z,19.58
2022-08-16T01:27:53.453Z,19.55
2022-08-16T01:28:53.421Z,19.54
2022-08-16T01:29:57.947Z,19.52
2022-08-16T01:30:54.413Z,19.52
2022-08-16T01:31:53.405Z,19.51
2022-08-16T01:33:01.538Z,19.49
2022-08-16T01:33:54.393Z,19.47
2022-08-16T01:34:56.884Z,19.41
2022-08-16T01:35:53.533Z,19.40
2022-08-16T01:36:58.308Z,19.39
2022-08-16T01:37:54.646Z,19.36
2022-08-16T01:38:57.455Z,19.33
2022-08-16T01:39:53.366Z,19.33
2022-08-16T01:40:53.294Z,19.31
2022-08-16T01:41:53.298Z,19.31
2022-08-16T01:42:53.863Z,19.29
2022-08-16T01:43:54.318Z,19.27
2022-08-16T01:44:53.277Z,19.29
2022-08-16T01:45:54.091Z,19.26
2022-08-16T01:46:53.237Z,19.24
2022-08-16T01:47:53.245Z,19.21
2022-08-16T01:48:53.205Z,19.21
2022-08-16T01:50:42.768Z,19.19
2022-08-16T01:51:15.534Z,19.19
2022-08-16T01:51:54.274Z,19.19
2022-08-16T01:52:53.497Z,19.18
2022-08-16T01:53:55.186Z,19.15
2022-08-16T01:54:53.470Z,19.14
2022-08-16T01:55:53.724Z,19.15
2022-08-16T01:56:53.117Z,19.14
2022-08-16T01:57:56.290Z,19.12
2022-08-16T01:58:53.099Z,19.11
2022-08-16T01:59:54.505Z,19.11
2022-08-16T02:00:53.097Z,19.11
2022-08-16T02:01:59.451Z,19.09
2022-08-16T02:02:54.065Z,19.09
2022-08-16T02:03:53.050Z,19.08
2022-08-16T02:04:54.833Z,19.08
2022-08-16T02:05:53.062Z,19.08
2022-08-16T02:06:53.007Z,19.04
2022-08-16T02:07:53.560Z,19.07
2022-08-16T02:08:53.002Z,19.04
2022-08-16T02:09:59.040Z,19.00
2022-08-16T02:10:53.982Z,19.00
2022-08-16T02:11:53.626Z,18.98
2022-08-16T02:13:00.136Z,18.98
2022-08-16T02:13:54.901Z,18.95
2022-08-16T02:14:52.922Z,18.92
2022-08-16T02:15:52.921Z,18.90
2022-08-16T02:16:52.909Z,18.89
2022-08-16T02:17:52.893Z,18.88
2022-08-16T02:18:52.870Z,18.88
2022-08-16T02:20:00.223Z,18.84
2022-08-16T02:20:53.854Z,18.86
2022-08-16T02:22:08.492Z,18.83
2022-08-16T02:22:55.273Z,18.81
2022-08-16T02:23:55.882Z,18.77
2022-08-16T02:24:52.834Z,18.77
2022-08-16T02:25:54.091Z,18.77
2022-08-16T02:26:52.801Z,18.74
2022-08-16T02:27:52.835Z,18.74
2022-08-16T02:28:52.800Z,18.71
2022-08-16T02:29:52.786Z,18.71
2022-08-16T02:30:53.742Z,18.73
2022-08-16T02:32:03.485Z,18.71
2022-08-16T02:32:53.740Z,18.71
2022-08-16T02:33:52.706Z,18.70
2022-08-16T02:34:56.347Z,18.70
2022-08-16T02:35:55.169Z,18.68
2022-08-16T02:36:53.707Z,18.71
2022-08-16T02:37:53.416Z,18.70
2022-08-16T02:38:52.646Z,18.70
2022-08-16T02:39:54.153Z,18.71
2022-08-16T02:40:54.603Z,18.71
2022-08-16T02:41:53.181Z,18.73
2022-08-16T02:42:52.885Z,18.74
2022-08-16T02:43:52.668Z,18.73
2022-08-16T02:44:52.600Z,18.73
2022-08-16T02:45:52.578Z,18.73
2022-08-16T02:46:53.803Z,18.74
2022-08-16T02:48:00.629Z,18.74
2022-08-16T02:48:53.544Z,18.73
2022-08-16T02:49:59.218Z,18.73
2022-08-16T02:51:08.074Z,18.73
2022-08-16T02:51:53.511Z,18.68
2022-08-16T02:52:52.539Z,18.68
2022-08-16T02:53:52.870Z,18.66
2022-08-16T02:54:55.476Z,18.68
2022-08-16T02:55:52.514Z,18.71
2022-08-16T02:56:52.490Z,18.73
2022-08-16T02:57:54.605Z,18.73
2022-08-16T02:58:52.439Z,18.74
2022-08-16T02:59:52.438Z,18.74
2022-08-16T03:00:52.503Z,18.74
2022-08-16T03:01:52.549Z,18.75
2022-08-16T03:02:55.988Z,18.75
2022-08-16T03:04:39.520Z,18.77
2022-08-16T03:04:53.562Z,18.77
2022-08-16T03:05:53.218Z,18.77
2022-08-16T03:06:55.274Z,18.74
2022-08-16T03:07:52.342Z,18.74
2022-08-16T03:08:53.254Z,18.71
2022-08-16T03:09:52.323Z,18.66
2022-08-16T03:10:52.294Z,18.66
2022-08-16T03:11:52.291Z,18.63
2022-08-16T03:12:56.203Z,18.60
2022-08-16T03:13:53.144Z,18.59
2022-08-16T03:14:52.264Z,18.56
2022-08-16T03:15:52.243Z,18.56
2022-08-16T03:16:59.534Z,18.55
2022-08-16T03:17:54.160Z,18.55
2022-08-16T03:18:52.234Z,18.53
2022-08-16T03:19:59.658Z,18.55
2022-08-16T03:20:55.545Z,18.52
2022-08-16T03:21:52.345Z,18.53
2022-08-16T03:22:52.195Z,18.50
2022-08-16T03:23:52.167Z,18.49
2022-08-16T03:24:52.164Z,18.49
2022-08-16T03:25:52.173Z,18.49
2022-08-16T03:26:52.115Z,18.45
2022-08-16T03:27:52.115Z,18.45
2022-08-16T03:28:52.133Z,18.47
2022-08-16T03:29:54.633Z,18.45
2022-08-16T03:30:52.087Z,18.44
2022-08-16T03:31:52.438Z,18.45
2022-08-16T03:32:52.232Z,18.44
2022-08-16T03:33:52.198Z,18.45
2022-08-16T03:34:52.049Z,18.47
2022-08-16T03:35:56.973Z,18.47
2022-08-16T03:36:53.015Z,18.49
2022-08-16T03:38:01.697Z,18.52
2022-08-16T03:38:53.019Z,18.55
2022-08-16T03:39:56.666Z,18.55
2022-08-16T03:40:53.008Z,18.58
2022-08-16T03:42:00.101Z,18.59
2022-08-16T03:43:18.690Z,18.62
2022-08-16T03:43:52.947Z,18.70
2022-08-16T03:44:51.939Z,18.74
2022-08-16T03:45:53.431Z,18.78
2022-08-16T03:46:51.911Z,18.86
2022-08-16T03:47:51.892Z,18.96
2022-08-16T03:48:52.880Z,19.02
2022-08-16T03:49:52.457Z,19.02
2022-08-16T03:51:00.138Z,19.08
2022-08-16T03:51:52.871Z,19.11
2022-08-16T03:52:51.831Z,19.14
2022-08-16T03:53:57.548Z,19.19
2022-08-16T03:54:53.323Z,19.21
2022-08-16T03:55:51.831Z,19.22
2022-08-16T03:56:56.964Z,19.22
2022-08-16T03:57:52.783Z,19.22
2022-08-16T03:58:52.567Z,19.21
2022-08-16T03:59:51.751Z,19.22
2022-08-16T04:00:59.170Z,19.24
2022-08-16T04:01:53.850Z,19.24
2022-08-16T04:02:51.712Z,19.22
2022-08-16T04:03:52.915Z,19.22
2022-08-16T04:04:51.703Z,19.21
2022-08-16T04:05:54.237Z,19.26
2022-08-16T04:06:51.691Z,19.27
2022-08-16T04:07:51.703Z,19.29
2022-08-16T04:08:51.663Z,19.31
2022-08-16T04:09:51.652Z,19.33
2022-08-16T04:10:51.894Z,19.31
2022-08-16T04:11:51.636Z,19.33
2022-08-16T04:12:53.962Z,19.33
2022-08-16T04:13:58.856Z,19.31
2022-08-16T04:14:52.623Z,19.31
2022-08-16T04:15:52.908Z,19.31
2022-08-16T04:16:51.564Z,19.31
2022-08-16T04:17:51.772Z,19.31
2022-08-16T04:18:51.555Z,19.31
2022-08-16T04:19:52.377Z,19.30
2022-08-16T04:20:51.523Z,19.29
2022-08-16T04:21:51.519Z,19.27
2022-08-16T04:22:52.519Z,19.29
2022-08-16T04:23:51.514Z,19.30
2022-08-16T04:24:54.199Z,19.29
2022-08-16T04:25:51.458Z,19.29
2022-08-16T04:26:51.474Z,19.30
2022-08-16T04:27:54.342Z,19.30
2022-08-16T04:28:53.209Z,19.29
2022-08-16T04:29:52.571Z,19.29
2022-08-16T04:30:51.406Z,19.26
2022-08-16T04:31:56.373Z,19.27
2022-08-16T04:32:52.382Z,19.26
2022-08-16T04:33:51.592Z,19.24
2022-08-16T04:34:51.457Z,19.26
2022-08-16T04:35:51.348Z,19.22
2022-08-16T04:36:51.352Z,19.22
2022-08-16T04:37:53.941Z,19.21
2022-08-16T04:38:52.587Z,19.22
2022-08-16T04:39:55.671Z,19.21
2022-08-16T04:40:52.287Z,19.21
2022-08-16T04:41:56.555Z,19.19
2022-08-16T04:42:52.567Z,19.19
2022-08-16T04:43:51.255Z,19.19
2022-08-16T04:44:54.614Z,19.19
2022-08-16T04:46:00.740Z,19.21
2022-08-16T04:47:02.676Z,19.26
2022-08-16T04:47:56.199Z,19.27
2022-08-16T04:48:51.235Z,19.30
2022-08-16T04:49:52.471Z,19.29
2022-08-16T04:50:51.191Z,19.30
2022-08-16T04:51:53.929Z,19.31
2022-08-16T04:52:51.159Z,19.31
2022-08-16T04:53:51.904Z,19.31
2022-08-16T04:54:51.147Z,19.33
2022-08-16T04:55:53.327Z,19.33
2022-08-16T04:56:51.123Z,19.34
2022-08-16T04:57:53.770Z,19.34
2022-08-16T04:58:51.123Z,19.34
2022-08-16T04:59:51.091Z,19.37
2022-08-16T05:00:51.076Z,19.39
2022-08-16T05:01:59.175Z,19.41
2022-08-16T05:02:55.614Z,19.41
2022-08-16T05:04:00.808Z,19.45
2022-08-16T05:04:52.043Z,19.48
2022-08-16T05:05:59.172Z,19.51
2022-08-16T05:06:52.004Z,19.51
2022-08-16T05:07:57.858Z,19.54
2022-08-16T05:08:52.003Z,19.55
2022-08-16T05:09:50.982Z,19.58
2022-08-16T05:10:50.975Z,19.58
2022-08-16T05:11:50.964Z,19.58
2022-08-16T05:12:50.955Z,19.59
2022-08-16T05:13:50.923Z,19.62
2022-08-16T05:15:01.995Z,19.63
2022-08-16T05:15:51.902Z,19.64
2022-08-16T05:16:52.102Z,19.67
2022-08-16T05:17:58.906Z,19.69
2022-08-16T05:18:51.875Z,19.71
2022-08-16T05:19:58.295Z,19.73
2022-08-16T05:20:54.234Z,19.74
2022-08-16T05:21:51.836Z,19.76
2022-08-16T05:22:50.847Z,19.79
2022-08-16T05:23:55.520Z,19.81
2022-08-16T05:24:54.867Z,19.82
2022-08-16T05:25:50.843Z,19.86
2022-08-16T05:26:51.622Z,19.88
2022-08-16T05:27:50.800Z,19.88
2022-08-16T05:28:55.224Z,19.91
2022-08-16T05:29:57.600Z,19.94
2022-08-16T05:30:51.967Z,19.95
2022-08-16T05:31:53.398Z,19.95
2022-08-16T05:32:50.973Z,19.95
2022-08-16T05:33:53.319Z,19.99
2022-08-16T05:34:50.727Z,19.99
2022-08-16T05:35:54.889Z,20.00
2022-08-16T05:36:51.676Z,20.00
2022-08-16T05:37:50.662Z,19.99
2022-08-16T05:38:50.679Z,20.00
2022-08-16T05:39:50.687Z,20.02
2022-08-16T05:40:57.321Z,20.02
2022-08-16T05:41:52.020Z,20.03
2022-08-16T05:42:51.036Z,20.03
2022-08-16T05:43:50.600Z,20.03
2022-08-16T05:44:51.631Z,20.03
2022-08-16T05:45:50.970Z,20.04
2022-08-16T05:46:50.583Z,20.07
2022-08-16T05:47:59.769Z,20.09
2022-08-16T05:48:54.864Z,20.10
2022-08-16T05:49:50.765Z,20.10
2022-08-16T05:50:52.891Z,20.11
2022-08-16T05:51:50.511Z,20.13
2022-08-16T05:52:50.505Z,20.14
2022-08-16T05:53:50.494Z,20.14
2022-08-16T05:54:58.582Z,20.16
2022-08-16T05:55:51.696Z,20.18
2022-08-16T05:56:50.483Z,20.19
2022-08-16T05:57:52.516Z,20.21
2022-08-16T05:58:50.469Z,20.24
2022-08-16T06:00:00.193Z,20.24
2022-08-16T06:00:51.426Z,20.25
2022-08-16T06:01:50.442Z,20.25
2022-08-16T06:02:50.396Z,20.28
2022-08-16T06:03:50.372Z,20.29
2022-08-16T06:04:50.384Z,20.31
2022-08-16T06:05:50.401Z,20.32
2022-08-16T06:06:56.698Z,20.34
2022-08-16T06:07:58.256Z,20.36
2022-08-16T06:08:51.325Z,20.34
2022-08-16T06:09:50.304Z,20.37
2022-08-16T06:11:02.413Z,20.41
2022-08-16T06:11:51.276Z,20.43
2022-08-16T06:12:53.941Z,20.44
2022-08-16T06:13:51.288Z,20.50
2022-08-16T06:14:51.459Z,20.55
2022-08-16T06:15:50.248Z,20.60
2022-08-16T06:16:50.707Z,20.67
2022-08-16T06:17:51.736Z,20.70
2022-08-16T06:18:50.507Z,20.72
2022-08-16T06:19:50.197Z,20.77
2022-08-16T06:20:55.674Z,20.80
2022-08-16T06:21:55.245Z,20.81
2022-08-16T06:22:57.804Z,20.82
2022-08-16T06:23:54.042Z,20.84
2022-08-16T06:24:54.602Z,20.87
2022-08-16T06:25:52.174Z,20.85
2022-08-16T06:26:57.803Z,20.85
2022-08-16T06:27:57.289Z,20.85
2022-08-16T06:28:52.556Z,20.88
2022-08-16T06:29:50.457Z,20.88
2022-08-16T06:30:50.657Z,20.84
2022-08-16T06:31:50.478Z,20.84
2022-08-16T06:32:50.243Z,20.84
2022-08-16T06:33:50.040Z,20.85
2022-08-16T06:34:55.442Z,20.87
2022-08-16T06:35:51.028Z,20.88
2022-08-16T06:36:50.021Z,20.88
2022-08-16T06:37:51.488Z,20.93
2022-08-16T06:38:55.419Z,20.95
2022-08-16T06:39:51.025Z,20.97
2022-08-16T06:40:49.976Z,21.00
2022-08-16T06:41:49.965Z,21.07
2022-08-16T06:42:54.012Z,21.11
2022-08-16T06:43:51.211Z,21.12
2022-08-16T06:44:49.952Z,21.14
2022-08-16T06:45:49.914Z,21.14
2022-08-16T06:46:50.590Z,21.15
2022-08-16T06:47:52.890Z,21.20
2022-08-16T06:48:51.789Z,21.18
2022-08-16T06:49:52.821Z,21.21
2022-08-16T06:50:50.045Z,21.22
2022-08-16T06:51:49.845Z,21.25
2022-08-16T06:52:58.072Z,21.29
2022-08-16T06:53:52.814Z,21.33
2022-08-16T06:54:50.066Z,21.33
2022-08-16T06:55:49.799Z,21.35
2022-08-16T06:56:54.042Z,21.35
2022-08-16T06:57:49.782Z,21.33
2022-08-16T06:58:49.785Z,21.35
2022-08-16T06:59:58.188Z,21.36
2022-08-16T07:00:50.781Z,21.36
2022-08-16T07:01:53.443Z,21.36
2022-08-16T07:02:51.301Z,21.40
2022-08-16T07:03:55.922Z,21.42
2022-08-16T07:04:50.707Z,21.48
2022-08-16T07:05:49.705Z,21.50
2022-08-16T07:06:49.705Z,21.51
2022-08-16T07:07:50.999Z,21.51
2022-08-16T07:08:49.677Z,21.54
2022-08-16T07:09:49.666Z,21.54
2022-08-16T07:10:49.649Z,21.54
2022-08-16T07:11:51.648Z,21.52
2022-08-16T07:13:04.671Z,21.52
2022-08-16T07:14:00.360Z,21.52
2022-08-16T07:14:50.602Z,21.51
2022-08-16T07:15:50.408Z,21.52
2022-08-16T07:16:49.582Z,21.55
2022-08-16T07:17:49.553Z,21.58
2022-08-16T07:19:01.434Z,21.60
2022-08-16T07:20:02.908Z,21.64
2022-08-16T07:20:50.530Z,21.67
2022-08-16T07:21:59.668Z,21.69
2022-08-16T07:22:53.094Z,21.72
2022-08-16T07:23:50.531Z,21.72
2022-08-16T07:24:50.490Z,21.73
2022-08-16T07:25:49.474Z,21.72
2022-08-16T07:26:49.474Z,21.72
2022-08-16T07:27:49.462Z,21.75
2022-08-16T07:28:49.455Z,21.75
2022-08-16T07:29:49.482Z,21.76
2022-08-16T07:30:50.433Z,21.79
2022-08-16T07:31:49.472Z,21.82
2022-08-16T07:32:51.659Z,21.91
2022-08-16T07:33:53.396Z,21.92
2022-08-16T07:34:50.414Z,21.93
2022-08-16T07:35:49.918Z,21.96
2022-08-16T07:36:57.970Z,21.96
2022-08-16T07:37:50.367Z,21.98
2022-08-16T07:38:49.334Z,22.00
2022-08-16T07:39:49.522Z,22.02
2022-08-16T07:41:00.313Z,22.07
2022-08-16T07:41:50.296Z,22.08
2022-08-16T07:42:49.501Z,22.13
2022-08-16T07:43:49.285Z,22.14
2022-08-16T07:44:50.539Z,22.15
2022-08-16T07:45:52.818Z,22.17
2022-08-16T07:46:56.300Z,22.18
2022-08-16T07:47:51.225Z,22.22
2022-08-16T07:48:49.227Z,22.25
2022-08-16T07:49:53.166Z,22.28
2022-08-16T07:50:56.076Z,22.29
2022-08-16T07:51:50.198Z,22.35
2022-08-16T07:52:50.414Z,22.35
2022-08-16T07:53:49.179Z,22.36
2022-08-16T07:54:53.372Z,22.36
2022-08-16T07:55:49.140Z,22.38
2022-08-16T07:56:49.158Z,22.38
2022-08-16T07:58:01.065Z,22.36
2022-08-16T07:58:50.137Z,22.41
2022-08-16T07:59:50.214Z,22.44
2022-08-16T08:00:49.207Z,22.48
2022-08-16T08:01:49.098Z,22.51
2022-08-16T08:02:49.424Z,22.54
2022-08-16T08:03:49.530Z,22.57
2022-08-16T08:04:49.090Z,22.57
2022-08-16T08:05:49.119Z,22.59
2022-08-16T08:06:51.052Z,22.62
2022-08-16T08:07:49.010Z,22.65
2022-08-16T08:08:52.053Z,22.66
2022-08-16T08:09:48.992Z,22.68
2022-08-16T08:10:48.997Z,22.70
2022-08-16T08:11:59.899Z,22.75
2022-08-16T08:12:50.129Z,22.78
2022-08-16T08:13:48.953Z,22.83
2022-08-16T08:14:48.950Z,22.85
2022-08-16T08:15:52.712Z,22.88
2022-08-16T08:16:48.960Z,22.90
2022-08-16T08:17:49.050Z,22.94
2022-08-16T08:18:50.645Z,23.02
2022-08-16T08:19:53.238Z,23.06
2022-08-16T08:20:59.246Z,23.12
2022-08-16T08:22:00.111Z,23.17
2022-08-16T08:22:49.990Z,23.20
2022-08-16T08:23:48.866Z,23.23
2022-08-16T08:24:48.859Z,23.31
2022-08-16T08:25:52.067Z,23.37
2022-08-16T08:26:50.618Z,23.39
2022-08-16T08:27:48.834Z,23.43
2022-08-16T08:28:48.795Z,23.47
2022-08-16T08:30:43.890Z,23.51
2022-08-16T08:31:00.808Z,23.58
2022-08-16T08:31:49.758Z,23.61
2022-08-16T08:32:51.193Z,23.66
2022-08-16T08:33:51.726Z,23.77
2022-08-16T08:34:48.726Z,23.86
2022-08-16T08:35:48.724Z,23.91
2022-08-16T08:36:48.707Z,23.93
2022-08-16T08:37:54.626Z,23.93
2022-08-16T08:38:49.686Z,24.08
2022-08-16T08:39:55.018Z,24.10
2022-08-16T08:40:49.669Z,24.08
2022-08-16T08:41:49.433Z,24.16
2022-08-16T08:42:48.718Z,24.26
2022-08-16T08:43:50.333Z,24.32
2022-08-16T08:44:48.607Z,24.26
2022-08-16T08:45:53.126Z,24.28
2022-08-16T08:46:59.690Z,24.35
2022-08-16T08:47:54.175Z,24.30
2022-08-16T08:48:59.275Z,24.39
2022-08-16T08:49:55.308Z,24.48
2022-08-16T08:50:50.179Z,24.68
2022-08-16T08:51:48.543Z,24.80
2022-08-16T08:52:48.680Z,25.07
2022-08-16T08:53:57.652Z,25.31
2022-08-16T08:54:50.419Z,25.58
2022-08-16T08:55:48.491Z,25.43
2022-08-16T08:56:49.488Z,25.29
2022-08-16T08:57:48.471Z,25.44
2022-08-16T08:58:53.890Z,25.69
2022-08-16T08:59:49.466Z,25.85
2022-08-16T09:00:51.174Z,25.77
2022-08-16T09:01:56.917Z,25.95
2022-08-16T09:02:52.189Z,25.93
2022-08-16T09:03:48.553Z,25.65
2022-08-16T09:04:48.383Z,25.77
2022-08-16T09:05:51.371Z,25.96
2022-08-16T09:06:48.391Z,25.69
2022-08-16T09:08:01.588Z,25.70
2022-08-16T09:08:49.355Z,25.72
2022-08-16T09:09:48.344Z,25.88
2022-08-16T09:10:48.328Z,26.06
2022-08-16T09:12:03.892Z,26.18
2022-08-16T09:12:49.473Z,26.13
2022-08-16T09:13:48.503Z,26.10
2022-08-16T09:14:51.137Z,26.19
2022-08-16T09:15:48.287Z,26.23
2022-08-16T09:17:01.661Z,26.43
2022-08-16T09:17:52.342Z,26.73
2022-08-16T09:18:53.446Z,26.97
2022-08-16T09:19:53.774Z,26.99
2022-08-16T09:20:59.432Z,26.66
2022-08-16T09:21:56.284Z,26.60
2022-08-16T09:22:51.501Z,26.62
2022-08-16T09:23:48.204Z,26.65
2022-08-16T09:24:53.503Z,26.68
2022-08-16T09:25:49.159Z,26.60
2022-08-16T09:26:48.160Z,26.34
2022-08-16T09:27:57.603Z,26.13
2022-08-16T09:29:14.697Z,26.22
2022-08-16T09:29:49.131Z,26.40
2022-08-16T09:30:49.099Z,26.55
2022-08-16T09:31:48.192Z,26.60
2022-08-16T09:32:49.239Z,26.66
2022-08-16T09:33:52.050Z,26.44
2022-08-16T09:34:48.063Z,26.37
2022-08-16T09:35:53.234Z,26.33
2022-08-16T09:36:49.334Z,26.38
2022-08-16T09:38:00.776Z,26.55
2022-08-16T09:38:49.012Z,26.62
2022-08-16T09:39:50.460Z,26.58
2022-08-16T09:40:48.072Z,26.56
2022-08-16T09:41:53.149Z,26.58
2022-08-16T09:42:56.069Z,26.41
2022-08-16T09:43:58.122Z,26.52
2022-08-16T09:45:12.881Z,26.83
2022-08-16T09:45:48.956Z,27.17
2022-08-16T09:46:49.354Z,27.40
2022-08-16T09:47:56.746Z,27.39
2022-08-16T09:48:51.142Z,27.30
2022-08-16T09:49:51.268Z,27.27
2022-08-16T09:50:47.895Z,27.42
2022-08-16T09:51:47.900Z,27.70
2022-08-16T09:52:48.297Z,27.96
2022-08-16T09:53:53.744Z,27.93
2022-08-16T09:54:48.878Z,27.64
2022-08-16T09:55:49.402Z,27.70
2022-08-16T09:56:51.619Z,27.73
2022-08-16T09:57:53.037Z,27.74
2022-08-16T09:59:03.617Z,27.95
2022-08-16T09:59:48.821Z,28.15
2022-08-16T10:00:48.800Z,28.39
2022-08-16T10:01:47.787Z,28.70
2022-08-16T10:02:48.243Z,28.57
2022-08-16T10:04:02.386Z,28.60
2022-08-16T10:04:54.632Z,28.56
2022-08-16T10:05:48.757Z,28.57
2022-08-16T10:06:47.814Z,28.51
2022-08-16T10:07:47.732Z,28.17
2022-08-16T10:09:04.224Z,28.08
2022-08-16T10:09:54.900Z,27.90
2022-08-16T10:10:48.700Z,27.73
2022-08-16T10:11:50.336Z,27.51
2022-08-16T10:12:57.192Z,27.39
2022-08-16T10:13:48.664Z,27.40
2022-08-16T10:14:47.647Z,27.36
2022-08-16T10:15:55.766Z,27.58
2022-08-16T10:16:48.908Z,27.48
2022-08-16T10:18:00.551Z,27.47
2022-08-16T10:19:06.768Z,27.42
2022-08-16T10:19:50.372Z,27.40
2022-08-16T10:20:47.576Z,27.26
2022-08-16T10:21:47.564Z,27.17
2022-08-16T10:22:50.601Z,27.29
2022-08-16T10:23:48.639Z,27.44
2022-08-16T10:24:55.605Z,27.51
2022-08-16T10:27:17.249Z,27.51
2022-08-16T10:27:18.889Z,27.49
2022-08-16T10:27:53.184Z,27.58
2022-08-16T10:28:50.207Z,27.64
2022-08-16T10:30:01.218Z,27.80
2022-08-16T10:30:48.476Z,28.01
2022-08-16T10:31:53.545Z,28.37
2022-08-16T10:32:48.436Z,28.37
2022-08-16T10:33:47.439Z,28.30
2022-08-16T10:34:47.428Z,28.39
2022-08-16T10:35:47.408Z,28.37
2022-08-16T10:36:48.400Z,28.57
2022-08-16T10:37:48.611Z,28.51
2022-08-16T10:38:47.381Z,28.39
2022-08-16T10:39:47.372Z,28.32
2022-08-16T10:40:47.352Z,28.33
2022-08-16T10:41:47.373Z,28.35
2022-08-16T10:42:47.470Z,28.59
2022-08-16T10:43:47.340Z,28.59
2022-08-16T10:44:54.610Z,28.32
2022-08-16T10:46:00.435Z,28.35
2022-08-16T10:46:48.304Z,28.33
2022-08-16T10:47:47.563Z,28.10
2022-08-16T10:48:48.365Z,28.12
2022-08-16T10:49:47.257Z,28.08
2022-08-16T10:50:47.253Z,28.10
2022-08-16T10:52:02.884Z,28.15
2022-08-16T10:52:49.354Z,28.30
2022-08-16T10:53:47.244Z,28.39
2022-08-16T10:55:48.184Z,28.70
2022-08-16T10:56:55.524Z,29.14
2022-08-16T10:57:48.397Z,29.47
2022-08-16T10:58:47.158Z,29.42
2022-08-16T10:59:54.394Z,29.41
2022-08-16T11:00:48.128Z,29.24
2022-08-16T11:02:59.982Z,28.94
2022-08-16T11:03:48.246Z,28.57
2022-08-16T11:06:06.275Z,28.82
2022-08-16T11:07:06.620Z,28.86
2022-08-16T11:07:55.328Z,28.70
2022-08-16T11:08:48.378Z,28.91
2022-08-16T11:09:47.061Z,29.27
2022-08-16T11:11:06.767Z,29.65
2022-08-16T11:12:48.187Z,30.13
2022-08-16T11:14:05.907Z,29.90
2022-08-16T11:15:55.400Z,29.72
2022-08-16T11:17:09.511Z,29.44
2022-08-16T11:18:36.572Z,29.08
2022-08-16T11:19:06.409Z,28.89
2022-08-16T11:20:41.190Z,28.79
2022-08-16T11:20:49.421Z,28.69
2022-08-16T11:22:48.947Z,28.67
2022-08-16T11:23:57.566Z,28.66
2022-08-16T11:25:11.400Z,28.72
2022-08-16T11:26:16.266Z,28.70
2022-08-16T11:27:18.317Z,28.63
2022-08-16T11:27:48.107Z,28.56
2022-08-16T11:29:47.840Z,28.39
2022-08-16T11:30:46.825Z,28.41
2022-08-16T11:31:54.049Z,28.51
2022-08-16T11:32:47.872Z,28.69
2022-08-16T11:33:55.348Z,29.04
2022-08-16T11:35:09.805Z,29.24
2022-08-16T11:36:59.373Z,29.32
2022-08-16T11:38:56.970Z,29.60
2022-08-16T11:39:47.791Z,29.81
2022-08-16T11:40:52.271Z,30.09
2022-08-16T11:41:49.338Z,29.63
2022-08-16T11:42:46.703Z,29.56
2022-08-16T11:43:46.702Z,29.68
2022-08-16T11:44:56.057Z,29.63
2022-08-16T11:45:54.333Z,29.56
2022-08-16T11:46:47.648Z,29.54
2022-08-16T11:47:46.650Z,29.60
2022-08-16T11:48:46.644Z,29.76
2022-08-16T11:49:46.625Z,29.78
2022-08-16T11:50:46.614Z,29.81
2022-08-16T11:51:46.593Z,29.91
2022-08-16T11:52:46.902Z,30.03
2022-08-16T11:53:46.592Z,30.12
2022-08-16T11:54:46.573Z,30.31
2022-08-16T11:55:47.584Z,30.34
2022-08-16T11:56:53.115Z,30.30
2022-08-16T11:57:47.731Z,30.30
2022-08-16T11:58:51.496Z,30.32
2022-08-16T11:59:47.505Z,30.43
2022-08-16T12:00:50.298Z,30.40
2022-08-16T12:01:58.949Z,30.54
2022-08-16T12:02:48.000Z,30.61
2022-08-16T12:03:46.519Z,30.59
2022-08-16T12:04:46.497Z,30.70
2022-08-16T12:05:51.735Z,30.47
2022-08-16T12:06:46.439Z,30.08
2022-08-16T12:07:46.577Z,30.03
2022-08-16T12:08:46.407Z,30.06
2022-08-16T12:09:46.429Z,30.13
2022-08-16T12:10:46.430Z,30.23
2022-08-16T12:11:47.190Z,30.31
2022-08-16T12:12:47.369Z,30.46
2022-08-16T12:13:46.369Z,30.65
2022-08-16T12:14:46.402Z,30.85
2022-08-16T12:15:46.413Z,30.96
2022-08-16T12:16:55.150Z,30.94
2022-08-16T12:17:47.530Z,31.20
2022-08-16T12:19:46.333Z,31.62
2022-08-16T12:20:46.283Z,31.74
2022-08-16T12:21:58.451Z,31.73
2022-08-16T12:22:47.566Z,31.80
2022-08-16T12:23:46.262Z,31.64
2022-08-16T12:24:51.115Z,31.46
2022-08-16T12:25:47.706Z,31.52
2022-08-16T12:26:46.256Z,31.56
2022-08-16T12:27:46.222Z,31.62
2022-08-16T12:28:54.500Z,31.69
2022-08-16T12:29:47.242Z,31.71
2022-08-16T12:30:46.222Z,31.54
2022-08-16T12:32:00.862Z,31.24
2022-08-16T12:32:52.913Z,30.92
2022-08-16T12:33:47.166Z,30.84
2022-08-16T12:34:50.716Z,30.83
2022-08-16T12:35:47.147Z,30.87
2022-08-16T12:36:46.115Z,30.96
2022-08-16T12:37:47.184Z,31.00
2022-08-16T12:38:48.692Z,30.87
2022-08-16T12:39:50.859Z,30.85
2022-08-16T12:40:47.082Z,30.94
2022-08-16T12:41:46.088Z,31.15
2022-08-16T12:42:52.787Z,31.24
2022-08-16T12:43:47.060Z,31.22
2022-08-16T12:44:46.027Z,31.25
2022-08-16T12:45:46.051Z,31.22
2022-08-16T12:46:46.671Z,31.12
2022-08-16T12:47:46.024Z,31.27
2022-08-16T12:48:46.472Z,31.27
2022-08-16T12:49:46.011Z,31.29
2022-08-16T12:50:49.349Z,31.42
2022-08-16T12:51:59.701Z,31.64
2022-08-16T12:52:52.412Z,31.85
2022-08-16T12:53:46.952Z,32.11
2022-08-16T12:54:45.930Z,32.16
2022-08-16T12:55:46.935Z,32.09
2022-08-16T12:56:45.915Z,31.92
2022-08-16T12:57:45.959Z,31.85
2022-08-16T12:58:50.041Z,31.78
2022-08-16T12:59:45.907Z,31.85
2022-08-16T13:00:45.980Z,31.84
2022-08-16T13:01:45.954Z,31.76